Погода Фаломбена неделю

Южная Провинция, Малави

21 - 27 июля
  • 21июля
    Сегодня
    +12°
    +27°
    Ясно и безоблачно
    ВремяПогодаТемператураВлажностьДавлениеВетер, м/сВероятность осадков
    02:00Ясно и безоблачно+16°C56 %699 мм0.8 м/с5 %
    05:00Ясно и безоблачно+15°C59 %699 мм1.0 м/с5 %
    08:00Ясно и безоблачно+19°C51 %701 мм0.1 м/с5 %
    11:00Ясно и безоблачно+23°C44 %702 мм1.0 м/с5 %
    14:00Ясно и безоблачно+26°C42 %701 мм0.8 м/с5 %
    17:00Ясно и безоблачно+22°C59 %700 мм0.4 м/с5 %
    20:00Ясно и безоблачно+17°C70 %700 мм1.6 м/с5 %
    23:00Ясно и безоблачно+15°C73 %700 мм1.2 м/с5 %
  • 22июля
    Понедельник
    +13°
    +26°
    Облачно с прояснениями
    ВремяПогодаТемператураВлажностьДавлениеВетер, м/сВероятность осадков
    02:00Практически безоблачно+15°C70 %700 мм0.8 м/с5 %
    05:00Небольшая облачность+12°C78 %700 мм0.3 м/с5 %
    08:00Практически безоблачно+17°C75 %703 мм0.5 м/с5 %
    11:00Облачно с прояснениями+21°C58 %703 мм1.1 м/с5 %
    14:00Облачно с прояснениями+26°C46 %702 мм0.7 м/с5 %
    17:00Небольшая облачность+22°C63 %702 мм0.5 м/с5 %
    20:00Ясно и безоблачно+16°C75 %702 мм1.2 м/с5 %
    23:00Ясно и безоблачно+14°C75 %702 мм0.7 м/с5 %
  • 23июля
    Вторник
    +12°
    +26°
    Практически безоблачно
    ВремяПогодаТемператураВлажностьДавлениеВетер, м/сВероятность осадков
    02:00Ясно и безоблачно+14°C76 %701 мм0.9 м/с5 %
    05:00Ясно и безоблачно+13°C66 %701 мм0.5 м/с5 %
    08:00Ясно и безоблачно+18°C54 %704 мм0.3 м/с5 %
    11:00Ясно и безоблачно+22°C37 %704 мм0.5 м/с5 %
    14:00Практически безоблачно+26°C26 %703 мм0.6 м/с5 %
    17:00Ясно и безоблачно+21°C42 %702 мм1.6 м/с5 %
    20:00Ясно и безоблачно+16°C65 %702 мм2.3 м/с5 %
    23:00Ясно и безоблачно+13°C79 %702 мм1.1 м/с5 %
  • 24июля
    Среда
    +13°
    +26°
    Небольшая облачность
    ВремяПогодаТемператураВлажностьДавлениеВетер, м/сВероятность осадков
    02:00Ясно и безоблачно+13°C68 %700 мм0.9 м/с5 %
    05:00Практически безоблачно+13°C51 %701 мм0.8 м/с5 %
    08:00Практически безоблачно+17°C49 %703 мм0.2 м/с5 %
    11:00Небольшая облачность+21°C39 %702 мм0.8 м/с5 %
    14:00Небольшая облачность+26°C31 %701 мм1.2 м/с5 %
    17:00Ясно и безоблачно+21°C46 %700 мм0.4 м/с5 %
    20:00Ясно и безоблачно+16°C52 %700 мм0.9 м/с5 %
    23:00Ясно и безоблачно+15°C49 %699 мм0.9 м/с5 %
  • 25июля
    Четверг
    +13°
    +28°
    Небольшая облачность
    ВремяПогодаТемператураВлажностьДавлениеВетер, м/сВероятность осадков
    02:00Ясно и безоблачно+15°C43 %698 мм0.9 м/с5 %
    05:00Ясно и безоблачно+14°C35 %698 мм0.7 м/с5 %
    08:00Небольшая облачность+20°C36 %700 мм0.3 м/с5 %
    11:00Небольшая облачность+23°C24 %700 мм0.8 м/с5 %
    14:00Небольшая облачность+28°C19 %699 мм0.2 м/с5 %
    17:00Ясно и безоблачно+22°C40 %699 мм1.1 м/с5 %
    20:00Ясно и безоблачно+17°C39 %699 мм1.9 м/с5 %
    23:00Ясно и безоблачно+15°C43 %699 мм0.9 м/с5 %
Мы используем cookies
Соглашаюсь